sensor_id;sensor_type;location;lat;lon;timestamp;P1;durP1;ratioP1;P2;durP2;ratioP2
40286;SDS011;25998;46.604;13.610;2022-07-05T00:02:23;5.60;;;2.97;;
40286;SDS011;25998;46.604;13.610;2022-07-05T00:05:35;4.55;;;3.50;;
40286;SDS011;25998;46.604;13.610;2022-07-05T00:08:47;4.25;;;3.78;;
40286;SDS011;25998;46.604;13.610;2022-07-05T00:11:57;6.63;;;4.38;;
40286;SDS011;25998;46.604;13.610;2022-07-05T00:15:08;6.50;;;3.95;;
40286;SDS011;25998;46.604;13.610;2022-07-05T00:18:19;4.53;;;3.67;;
40286;SDS011;25998;46.604;13.610;2022-07-05T00:21:30;4.60;;;4.15;;
40286;SDS011;25998;46.604;13.610;2022-07-05T00:24:41;5.13;;;4.03;;
40286;SDS011;25998;46.604;13.610;2022-07-05T00:27:52;5.35;;;3.63;;
40286;SDS011;25998;46.604;13.610;2022-07-05T00:31:05;4.55;;;4.10;;
40286;SDS011;25998;46.604;13.610;2022-07-05T00:34:16;5.00;;;3.88;;
40286;SDS011;25998;46.604;13.610;2022-07-05T00:37:27;4.43;;;4.00;;
40286;SDS011;25998;46.604;13.610;2022-07-05T00:40:38;4.75;;;4.07;;
40286;SDS011;25998;46.604;13.610;2022-07-05T00:43:53;4.20;;;3.60;;
40286;SDS011;25998;46.604;13.610;2022-07-05T00:47:06;6.25;;;4.13;;
40286;SDS011;25998;46.604;13.610;2022-07-05T00:50:18;3.78;;;3.42;;
40286;SDS011;25998;46.604;13.610;2022-07-05T00:53:29;6.63;;;4.22;;
40286;SDS011;25998;46.604;13.610;2022-07-05T00:56:40;4.55;;;4.07;;
40286;SDS011;25998;46.604;13.610;2022-07-05T00:59:51;6.15;;;4.25;;
40286;SDS011;25998;46.604;13.610;2022-07-05T01:03:02;6.72;;;4.50;;
40286;SDS011;25998;46.604;13.610;2022-07-05T01:06:14;6.18;;;4.90;;
40286;SDS011;25998;46.604;13.610;2022-07-05T01:09:25;6.68;;;4.38;;
40286;SDS011;25998;46.604;13.610;2022-07-05T01:12:40;6.32;;;5.20;;
40286;SDS011;25998;46.604;13.610;2022-07-05T01:15:52;4.97;;;4.47;;
40286;SDS011;25998;46.604;13.610;2022-07-05T01:19:03;6.15;;;4.65;;
40286;SDS011;25998;46.604;13.610;2022-07-05T01:22:17;5.78;;;5.03;;
40286;SDS011;25998;46.604;13.610;2022-07-05T01:25:30;6.20;;;5.60;;
40286;SDS011;25998;46.604;13.610;2022-07-05T01:28:41;6.72;;;5.22;;
40286;SDS011;25998;46.604;13.610;2022-07-05T01:31:52;6.20;;;5.30;;
40286;SDS011;25998;46.604;13.610;2022-07-05T01:35:04;6.88;;;6.15;;
40286;SDS011;25998;46.604;13.610;2022-07-05T01:38:15;7.47;;;6.07;;
40286;SDS011;25998;46.604;13.610;2022-07-05T01:41:26;7.63;;;6.93;;
40286;SDS011;25998;46.604;13.610;2022-07-05T01:44:37;7.80;;;6.57;;
40286;SDS011;25998;46.604;13.610;2022-07-05T01:47:48;6.00;;;5.40;;
40286;SDS011;25998;46.604;13.610;2022-07-05T01:54:14;7.28;;;6.57;;
40286;SDS011;25998;46.604;13.610;2022-07-05T01:57:25;7.05;;;6.32;;
40286;SDS011;25998;46.604;13.610;2022-07-05T02:00:42;8.15;;;6.82;;
40286;SDS011;25998;46.604;13.610;2022-07-05T02:03:58;7.28;;;6.57;;
40286;SDS011;25998;46.604;13.610;2022-07-05T02:07:10;7.80;;;6.60;;
40286;SDS011;25998;46.604;13.610;2022-07-05T02:10:21;7.07;;;6.38;;
40286;SDS011;25998;46.604;13.610;2022-07-05T02:13:32;7.78;;;6.68;;
40286;SDS011;25998;46.604;13.610;2022-07-05T02:16:43;7.30;;;6.60;;
40286;SDS011;25998;46.604;13.610;2022-07-05T02:19:54;7.28;;;6.57;;
40286;SDS011;25998;46.604;13.610;2022-07-05T02:23:05;8.30;;;7.03;;
40286;SDS011;25998;46.604;13.610;2022-07-05T02:26:17;7.22;;;6.30;;
40286;SDS011;25998;46.604;13.610;2022-07-05T02:29:28;6.00;;;5.40;;
40286;SDS011;25998;46.604;13.610;2022-07-05T02:32:39;8.20;;;5.90;;
40286;SDS011;25998;46.604;13.610;2022-07-05T02:35:50;6.95;;;5.78;;
40286;SDS011;25998;46.604;13.610;2022-07-05T02:39:01;6.55;;;5.95;;
40286;SDS011;25998;46.604;13.610;2022-07-05T02:42:12;6.40;;;5.80;;
40286;SDS011;25998;46.604;13.610;2022-07-05T02:45:23;7.03;;;6.40;;
40286;SDS011;25998;46.604;13.610;2022-07-05T02:48:34;7.53;;;6.20;;
40286;SDS011;25998;46.604;13.610;2022-07-05T02:51:47;7.35;;;6.00;;
40286;SDS011;25998;46.604;13.610;2022-07-05T02:54:57;6.35;;;5.43;;
40286;SDS011;25998;46.604;13.610;2022-07-05T02:58:08;6.60;;;6.00;;
40286;SDS011;25998;46.604;13.610;2022-07-05T03:01:19;6.97;;;6.22;;
40286;SDS011;25998;46.604;13.610;2022-07-05T03:04:30;7.72;;;6.78;;
40286;SDS011;25998;46.604;13.610;2022-07-05T03:07:41;9.30;;;6.47;;
40286;SDS011;25998;46.604;13.610;2022-07-05T03:10:52;7.78;;;6.10;;
40286;SDS011;25998;46.604;13.610;2022-07-05T03:14:02;8.95;;;6.55;;
40286;SDS011;25998;46.604;13.610;2022-07-05T03:17:13;7.45;;;6.13;;
40286;SDS011;25998;46.604;13.610;2022-07-05T03:20:24;6.47;;;5.88;;
40286;SDS011;25998;46.604;13.610;2022-07-05T03:23:35;7.03;;;5.82;;
40286;SDS011;25998;46.604;13.610;2022-07-05T03:26:46;6.85;;;6.15;;
40286;SDS011;25998;46.604;13.610;2022-07-05T03:29:57;7.28;;;5.68;;
40286;SDS011;25998;46.604;13.610;2022-07-05T03:33:07;7.30;;;6.05;;
40286;SDS011;25998;46.604;13.610;2022-07-05T03:36:18;7.00;;;6.18;;
40286;SDS011;25998;46.604;13.610;2022-07-05T03:39:29;6.93;;;6.22;;
40286;SDS011;25998;46.604;13.610;2022-07-05T03:42:40;8.50;;;6.35;;
40286;SDS011;25998;46.604;13.610;2022-07-05T03:45:51;9.63;;;6.43;;
40286;SDS011;25998;46.604;13.610;2022-07-05T03:49:02;6.38;;;5.28;;
40286;SDS011;25998;46.604;13.610;2022-07-05T03:52:12;7.93;;;6.00;;
40286;SDS011;25998;46.604;13.610;2022-07-05T03:55:23;6.88;;;5.93;;
40286;SDS011;25998;46.604;13.610;2022-07-05T03:58:34;6.35;;;5.50;;
40286;SDS011;25998;46.604;13.610;2022-07-05T04:01:45;7.28;;;5.97;;
40286;SDS011;25998;46.604;13.610;2022-07-05T04:04:56;6.78;;;6.18;;
40286;SDS011;25998;46.604;13.610;2022-07-05T04:08:07;7.03;;;6.32;;
40286;SDS011;25998;46.604;13.610;2022-07-05T04:11:17;6.57;;;5.97;;
40286;SDS011;25998;46.604;13.610;2022-07-05T04:14:28;8.65;;;6.38;;
40286;SDS011;25998;46.604;13.610;2022-07-05T04:18:13;7.03;;;6.32;;
40286;SDS011;25998;46.604;13.610;2022-07-05T04:21:16;9.15;;;6.03;;
40286;SDS011;25998;46.604;13.610;2022-07-05T04:24:28;6.90;;;6.20;;
40286;SDS011;25998;46.604;13.610;2022-07-05T04:27:38;6.90;;;6.20;;
40286;SDS011;25998;46.604;13.610;2022-07-05T04:30:51;6.35;;;5.75;;
40286;SDS011;25998;46.604;13.610;2022-07-05T04:34:01;8.50;;;5.85;;
40286;SDS011;25998;46.604;13.610;2022-07-05T04:37:12;6.57;;;5.93;;
40286;SDS011;25998;46.604;13.610;2022-07-05T04:40:23;5.78;;;5.18;;
40286;SDS011;25998;46.604;13.610;2022-07-05T04:43:34;6.88;;;5.35;;
40286;SDS011;25998;46.604;13.610;2022-07-05T04:46:45;10.95;;;5.85;;
40286;SDS011;25998;46.604;13.610;2022-07-05T04:49:56;7.03;;;6.30;;
40286;SDS011;25998;46.604;13.610;2022-07-05T04:53:07;8.00;;;5.88;;
40286;SDS011;25998;46.604;13.610;2022-07-05T04:56:20;8.25;;;5.40;;
40286;SDS011;25998;46.604;13.610;2022-07-05T04:59:31;7.32;;;5.82;;
40286;SDS011;25998;46.604;13.610;2022-07-05T05:02:41;6.07;;;5.47;;
40286;SDS011;25998;46.604;13.610;2022-07-05T05:05:53;6.53;;;5.75;;
40286;SDS011;25998;46.604;13.610;2022-07-05T05:09:04;9.00;;;6.40;;
40286;SDS011;25998;46.604;13.610;2022-07-05T05:12:15;6.55;;;5.50;;
40286;SDS011;25998;46.604;13.610;2022-07-05T05:15:25;7.82;;;5.63;;
40286;SDS011;25998;46.604;13.610;2022-07-05T05:18:36;7.00;;;5.80;;
40286;SDS011;25998;46.604;13.610;2022-07-05T05:21:47;7.30;;;6.60;;
40286;SDS011;25998;46.604;13.610;2022-07-05T05:24:58;7.82;;;6.10;;
40286;SDS011;25998;46.604;13.610;2022-07-05T05:28:09;7.40;;;6.28;;
40286;SDS011;25998;46.604;13.610;2022-07-05T05:31:20;10.15;;;6.90;;
40286;SDS011;25998;46.604;13.610;2022-07-05T05:34:31;8.57;;;7.00;;
40286;SDS011;25998;46.604;13.610;2022-07-05T05:37:45;7.60;;;6.45;;
40286;SDS011;25998;46.604;13.610;2022-07-05T05:41:01;7.20;;;6.30;;
40286;SDS011;25998;46.604;13.610;2022-07-05T05:44:12;8.30;;;7.45;;
40286;SDS011;25998;46.604;13.610;2022-07-05T05:47:23;6.18;;;5.57;;
40286;SDS011;25998;46.604;13.610;2022-07-05T05:50:34;6.97;;;4.60;;
40286;SDS011;25998;46.604;13.610;2022-07-05T05:53:46;5.47;;;4.88;;
40286;SDS011;25998;46.604;13.610;2022-07-05T05:56:57;7.25;;;5.28;;
40286;SDS011;25998;46.604;13.610;2022-07-05T06:00:09;9.32;;;6.30;;
40286;SDS011;25998;46.604;13.610;2022-07-05T06:03:21;6.57;;;5.97;;
40286;SDS011;25998;46.604;13.610;2022-07-05T06:06:33;5.75;;;4.93;;
40286;SDS011;25998;46.604;13.610;2022-07-05T06:09:44;5.90;;;4.50;;
40286;SDS011;25998;46.604;13.610;2022-07-05T06:12:56;6.38;;;5.03;;
40286;SDS011;25998;46.604;13.610;2022-07-05T06:16:08;7.75;;;5.47;;
40286;SDS011;25998;46.604;13.610;2022-07-05T06:19:19;10.70;;;5.47;;
40286;SDS011;25998;46.604;13.610;2022-07-05T06:22:30;5.22;;;4.72;;
40286;SDS011;25998;46.604;13.610;2022-07-05T06:25:41;7.72;;;4.72;;
40286;SDS011;25998;46.604;13.610;2022-07-05T06:28:52;5.47;;;4.85;;
40286;SDS011;25998;46.604;13.610;2022-07-05T06:32:03;5.97;;;4.68;;
40286;SDS011;25998;46.604;13.610;2022-07-05T06:35:14;5.65;;;5.15;;
40286;SDS011;25998;46.604;13.610;2022-07-05T06:38:25;6.47;;;5.38;;
40286;SDS011;25998;46.604;13.610;2022-07-05T06:41:36;7.18;;;5.22;;
40286;SDS011;25998;46.604;13.610;2022-07-05T06:44:47;6.90;;;4.90;;
40286;SDS011;25998;46.604;13.610;2022-07-05T06:48:02;6.78;;;5.88;;
40286;SDS011;25998;46.604;13.610;2022-07-05T06:51:17;6.68;;;4.55;;
40286;SDS011;25998;46.604;13.610;2022-07-05T06:54:28;5.40;;;4.90;;
40286;SDS011;25998;46.604;13.610;2022-07-05T06:57:39;7.75;;;4.90;;
40286;SDS011;25998;46.604;13.610;2022-07-05T07:00:52;7.63;;;4.60;;
40286;SDS011;25998;46.604;13.610;2022-07-05T07:04:03;6.32;;;5.50;;
40286;SDS011;25998;46.604;13.610;2022-07-05T07:07:14;5.60;;;5.00;;
40286;SDS011;25998;46.604;13.610;2022-07-05T07:10:44;4.90;;;4.20;;
40286;SDS011;25998;46.604;13.610;2022-07-05T07:13:55;7.22;;;5.20;;
40286;SDS011;25998;46.604;13.610;2022-07-05T07:17:06;6.43;;;4.95;;
40286;SDS011;25998;46.604;13.610;2022-07-05T07:20:17;6.43;;;4.70;;
40286;SDS011;25998;46.604;13.610;2022-07-05T07:23:28;5.40;;;4.80;;
40286;SDS011;25998;46.604;13.610;2022-07-05T07:26:39;6.57;;;4.70;;
40286;SDS011;25998;46.604;13.610;2022-07-05T07:30:09;7.57;;;5.50;;
40286;SDS011;25998;46.604;13.610;2022-07-05T07:33:22;5.20;;;4.70;;
40286;SDS011;25998;46.604;13.610;2022-07-05T07:36:32;4.88;;;4.35;;
40286;SDS011;25998;46.604;13.610;2022-07-05T07:39:43;5.13;;;4.50;;
40286;SDS011;25998;46.604;13.610;2022-07-05T07:42:54;5.00;;;4.30;;
40286;SDS011;25998;46.604;13.610;2022-07-05T07:46:05;5.53;;;3.97;;
40286;SDS011;25998;46.604;13.610;2022-07-05T07:49:16;4.90;;;4.38;;
40286;SDS011;25998;46.604;13.610;2022-07-05T07:52:27;4.50;;;3.78;;
40286;SDS011;25998;46.604;13.610;2022-07-05T07:55:40;6.13;;;4.05;;
40286;SDS011;25998;46.604;13.610;2022-07-05T07:58:51;4.80;;;3.70;;
40286;SDS011;25998;46.604;13.610;2022-07-05T08:02:02;4.75;;;4.32;;
40286;SDS011;25998;46.604;13.610;2022-07-05T08:05:13;4.03;;;3.47;;
40286;SDS011;25998;46.604;13.610;2022-07-05T08:08:24;6.45;;;4.20;;
40286;SDS011;25998;46.604;13.610;2022-07-05T08:11:35;4.68;;;3.50;;
40286;SDS011;25998;46.604;13.610;2022-07-05T08:14:46;4.78;;;3.35;;
40286;SDS011;25998;46.604;13.610;2022-07-05T08:17:59;4.25;;;2.88;;
40286;SDS011;25998;46.604;13.610;2022-07-05T08:21:29;3.50;;;3.15;;
40286;SDS011;25998;46.604;13.610;2022-07-05T08:24:45;4.13;;;3.08;;
40286;SDS011;25998;46.604;13.610;2022-07-05T08:27:56;5.28;;;3.20;;
40286;SDS011;25998;46.604;13.610;2022-07-05T08:31:07;3.70;;;3.30;;
40286;SDS011;25998;46.604;13.610;2022-07-05T08:34:18;5.65;;;3.45;;
40286;SDS011;25998;46.604;13.610;2022-07-05T08:37:29;5.65;;;3.35;;
40286;SDS011;25998;46.604;13.610;2022-07-05T08:40:43;3.35;;;3.05;;
40286;SDS011;25998;46.604;13.610;2022-07-05T08:43:59;3.60;;;3.30;;
40286;SDS011;25998;46.604;13.610;2022-07-05T08:47:12;3.75;;;2.90;;
40286;SDS011;25998;46.604;13.610;2022-07-05T08:50:26;3.95;;;3.22;;
40286;SDS011;25998;46.604;13.610;2022-07-05T08:53:37;3.88;;;3.45;;
40286;SDS011;25998;46.604;13.610;2022-07-05T08:56:50;3.15;;;2.85;;
40286;SDS011;25998;46.604;13.610;2022-07-05T09:00:02;4.13;;;3.05;;
40286;SDS011;25998;46.604;13.610;2022-07-05T09:03:13;3.78;;;2.55;;
40286;SDS011;25998;46.604;13.610;2022-07-05T09:06:26;4.15;;;2.72;;
40286;SDS011;25998;46.604;13.610;2022-07-05T09:09:38;3.47;;;2.70;;
40286;SDS011;25998;46.604;13.610;2022-07-05T09:12:53;3.25;;;2.88;;
40286;SDS011;25998;46.604;13.610;2022-07-05T09:16:05;3.60;;;2.80;;
40286;SDS011;25998;46.604;13.610;2022-07-05T09:19:16;3.35;;;2.67;;
40286;SDS011;25998;46.604;13.610;2022-07-05T09:22:28;2.95;;;2.50;;
40286;SDS011;25998;46.604;13.610;2022-07-05T09:26:05;3.05;;;2.45;;
40286;SDS011;25998;46.604;13.610;2022-07-05T09:29:17;3.83;;;2.80;;
40286;SDS011;25998;46.604;13.610;2022-07-05T09:32:31;3.22;;;2.53;;
40286;SDS011;25998;46.604;13.610;2022-07-05T09:35:43;3.35;;;2.60;;
40286;SDS011;25998;46.604;13.610;2022-07-05T09:39:09;3.15;;;2.60;;
40286;SDS011;25998;46.604;13.610;2022-07-05T09:42:23;3.75;;;3.03;;
40286;SDS011;25998;46.604;13.610;2022-07-05T09:45:35;3.97;;;2.97;;
40286;SDS011;25998;46.604;13.610;2022-07-05T09:48:52;4.43;;;2.83;;
40286;SDS011;25998;46.604;13.610;2022-07-05T09:52:03;2.72;;;2.20;;
40286;SDS011;25998;46.604;13.610;2022-07-05T09:55:15;3.15;;;2.63;;
40286;SDS011;25998;46.604;13.610;2022-07-05T09:58:28;2.72;;;2.17;;
40286;SDS011;25998;46.604;13.610;2022-07-05T10:01:39;2.83;;;2.30;;
40286;SDS011;25998;46.604;13.610;2022-07-05T10:04:50;4.15;;;2.10;;
40286;SDS011;25998;46.604;13.610;2022-07-05T10:08:25;2.42;;;2.20;;
40286;SDS011;25998;46.604;13.610;2022-07-05T10:11:38;2.40;;;2.00;;
40286;SDS011;25998;46.604;13.610;2022-07-05T10:14:51;2.33;;;1.90;;
40286;SDS011;25998;46.604;13.610;2022-07-05T10:18:03;3.20;;;2.00;;
40286;SDS011;25998;46.604;13.610;2022-07-05T10:21:41;2.78;;;1.75;;
40286;SDS011;25998;46.604;13.610;2022-07-05T10:24:54;2.35;;;1.85;;
40286;SDS011;25998;46.604;13.610;2022-07-05T10:28:06;2.60;;;1.73;;
40286;SDS011;25998;46.604;13.610;2022-07-05T10:31:17;3.97;;;2.00;;
40286;SDS011;25998;46.604;13.610;2022-07-05T10:34:30;2.70;;;2.00;;
40286;SDS011;25998;46.604;13.610;2022-07-05T10:37:43;3.42;;;1.88;;
40286;SDS011;25998;46.604;13.610;2022-07-05T10:40:57;2.97;;;2.20;;
40286;SDS011;25998;46.604;13.610;2022-07-05T10:44:16;2.30;;;2.00;;
40286;SDS011;25998;46.604;13.610;2022-07-05T10:47:36;3.63;;;2.00;;
40286;SDS011;25998;46.604;13.610;2022-07-05T10:54:17;2.35;;;1.90;;
40286;SDS011;25998;46.604;13.610;2022-07-05T10:57:28;2.58;;;1.90;;
40286;SDS011;25998;46.604;13.610;2022-07-05T11:00:39;3.38;;;2.00;;
40286;SDS011;25998;46.604;13.610;2022-07-05T11:07:12;2.45;;;2.00;;
40286;SDS011;25998;46.604;13.610;2022-07-05T11:10:23;3.05;;;2.00;;
40286;SDS011;25998;46.604;13.610;2022-07-05T11:13:35;2.65;;;2.15;;
40286;SDS011;25998;46.604;13.610;2022-07-05T11:17:32;3.17;;;1.80;;
40286;SDS011;25998;46.604;13.610;2022-07-05T11:20:28;2.97;;;2.08;;
40286;SDS011;25998;46.604;13.610;2022-07-05T11:23:40;2.55;;;1.98;;
40286;SDS011;25998;46.604;13.610;2022-07-05T11:26:51;3.08;;;2.17;;
40286;SDS011;25998;46.604;13.610;2022-07-05T11:30:06;4.07;;;2.38;;
40286;SDS011;25998;46.604;13.610;2022-07-05T11:33:34;2.55;;;1.90;;
40286;SDS011;25998;46.604;13.610;2022-07-05T11:37:10;3.47;;;2.15;;
40286;SDS011;25998;46.604;13.610;2022-07-05T11:40:27;2.88;;;2.05;;
40286;SDS011;25998;46.604;13.610;2022-07-05T11:43:40;3.08;;;2.00;;
40286;SDS011;25998;46.604;13.610;2022-07-05T11:46:52;2.20;;;1.80;;
40286;SDS011;25998;46.604;13.610;2022-07-05T11:50:04;3.42;;;2.08;;
40286;SDS011;25998;46.604;13.610;2022-07-05T11:53:24;3.05;;;1.90;;
40286;SDS011;25998;46.604;13.610;2022-07-05T11:56:40;3.30;;;1.92;;
40286;SDS011;25998;46.604;13.610;2022-07-05T11:59:51;2.55;;;1.67;;
40286;SDS011;25998;46.604;13.610;2022-07-05T12:03:11;2.28;;;1.73;;
40286;SDS011;25998;46.604;13.610;2022-07-05T12:06:23;3.22;;;1.85;;
40286;SDS011;25998;46.604;13.610;2022-07-05T12:09:35;2.40;;;1.90;;
40286;SDS011;25998;46.604;13.610;2022-07-05T12:13:07;2.60;;;2.00;;
40286;SDS011;25998;46.604;13.610;2022-07-05T12:16:19;3.13;;;1.90;;
40286;SDS011;25998;46.604;13.610;2022-07-05T12:19:30;2.60;;;1.77;;
40286;SDS011;25998;46.604;13.610;2022-07-05T12:22:41;2.90;;;2.00;;
40286;SDS011;25998;46.604;13.610;2022-07-05T12:25:53;2.70;;;1.92;;
40286;SDS011;25998;46.604;13.610;2022-07-05T12:29:08;2.58;;;1.85;;
40286;SDS011;25998;46.604;13.610;2022-07-05T12:32:19;3.17;;;1.70;;
40286;SDS011;25998;46.604;13.610;2022-07-05T12:35:31;2.75;;;2.03;;
40286;SDS011;25998;46.604;13.610;2022-07-05T12:38:48;2.72;;;1.80;;
40286;SDS011;25998;46.604;13.610;2022-07-05T12:41:59;3.17;;;2.03;;
40286;SDS011;25998;46.604;13.610;2022-07-05T12:45:13;2.47;;;1.80;;
40286;SDS011;25998;46.604;13.610;2022-07-05T12:48:38;2.95;;;1.70;;
40286;SDS011;25998;46.604;13.610;2022-07-05T12:51:49;2.38;;;1.70;;
40286;SDS011;25998;46.604;13.610;2022-07-05T12:55:10;3.03;;;1.77;;
40286;SDS011;25998;46.604;13.610;2022-07-05T13:02:00;3.25;;;1.90;;
40286;SDS011;25998;46.604;13.610;2022-07-05T13:05:22;2.85;;;1.85;;
40286;SDS011;25998;46.604;13.610;2022-07-05T13:08:34;3.28;;;2.03;;
40286;SDS011;25998;46.604;13.610;2022-07-05T13:11:45;3.50;;;2.00;;
40286;SDS011;25998;46.604;13.610;2022-07-05T13:14:56;2.33;;;1.90;;
40286;SDS011;25998;46.604;13.610;2022-07-05T13:18:07;3.63;;;3.00;;
40286;SDS011;25998;46.604;13.610;2022-07-05T13:21:17;3.67;;;2.22;;
40286;SDS011;25998;46.604;13.610;2022-07-05T13:24:28;2.25;;;1.60;;
40286;SDS011;25998;46.604;13.610;2022-07-05T13:27:39;3.70;;;2.10;;
40286;SDS011;25998;46.604;13.610;2022-07-05T13:30:51;6.57;;;2.03;;
40286;SDS011;25998;46.604;13.610;2022-07-05T13:34:02;3.25;;;1.80;;
40286;SDS011;25998;46.604;13.610;2022-07-05T13:37:13;2.67;;;1.85;;
40286;SDS011;25998;46.604;13.610;2022-07-05T13:40:24;2.28;;;1.60;;
40286;SDS011;25998;46.604;13.610;2022-07-05T13:43:35;2.80;;;1.80;;
40286;SDS011;25998;46.604;13.610;2022-07-05T13:46:48;3.45;;;1.85;;
40286;SDS011;25998;46.604;13.610;2022-07-05T13:49:59;2.28;;;1.70;;
40286;SDS011;25998;46.604;13.610;2022-07-05T13:56:39;2.72;;;1.88;;
40286;SDS011;25998;46.604;13.610;2022-07-05T13:59:50;2.55;;;1.70;;
40286;SDS011;25998;46.604;13.610;2022-07-05T14:03:01;3.78;;;1.90;;
40286;SDS011;25998;46.604;13.610;2022-07-05T14:06:12;2.67;;;1.75;;
40286;SDS011;25998;46.604;13.610;2022-07-05T14:09:23;3.35;;;1.70;;
40286;SDS011;25998;46.604;13.610;2022-07-05T14:12:35;3.50;;;2.00;;
40286;SDS011;25998;46.604;13.610;2022-07-05T14:15:46;2.30;;;1.60;;
40286;SDS011;25998;46.604;13.610;2022-07-05T14:18:58;8.35;;;2.25;;
40286;SDS011;25998;46.604;13.610;2022-07-05T14:22:09;3.40;;;1.95;;
40286;SDS011;25998;46.604;13.610;2022-07-05T14:25:20;2.78;;;1.70;;
40286;SDS011;25998;46.604;13.610;2022-07-05T14:28:31;2.85;;;1.80;;
40286;SDS011;25998;46.604;13.610;2022-07-05T14:31:42;2.35;;;1.77;;
40286;SDS011;25998;46.604;13.610;2022-07-05T14:34:52;3.15;;;1.73;;
40286;SDS011;25998;46.604;13.610;2022-07-05T14:38:03;7.07;;;2.65;;
40286;SDS011;25998;46.604;13.610;2022-07-05T14:41:15;14.68;;;2.78;;
40286;SDS011;25998;46.604;13.610;2022-07-05T14:44:26;2.58;;;1.85;;
40286;SDS011;25998;46.604;13.610;2022-07-05T14:47:37;4.65;;;2.00;;
40286;SDS011;25998;46.604;13.610;2022-07-05T14:50:48;2.47;;;1.85;;
40286;SDS011;25998;46.604;13.610;2022-07-05T14:53:59;3.25;;;1.90;;
40286;SDS011;25998;46.604;13.610;2022-07-05T14:57:10;3.30;;;1.60;;
40286;SDS011;25998;46.604;13.610;2022-07-05T15:00:21;2.35;;;1.55;;
40286;SDS011;25998;46.604;13.610;2022-07-05T15:03:32;4.93;;;1.98;;
40286;SDS011;25998;46.604;13.610;2022-07-05T15:06:43;4.22;;;1.80;;
40286;SDS011;25998;46.604;13.610;2022-07-05T15:09:55;2.33;;;1.75;;
40286;SDS011;25998;46.604;13.610;2022-07-05T15:13:06;2.30;;;1.70;;
40286;SDS011;25998;46.604;13.610;2022-07-05T15:16:18;2.97;;;1.80;;
40286;SDS011;25998;46.604;13.610;2022-07-05T15:19:29;9.30;;;2.00;;
40286;SDS011;25998;46.604;13.610;2022-07-05T15:22:40;5.40;;;2.10;;
40286;SDS011;25998;46.604;13.610;2022-07-05T15:25:51;8.65;;;3.28;;
40286;SDS011;25998;46.604;13.610;2022-07-05T15:29:06;5.40;;;2.50;;
40286;SDS011;25998;46.604;13.610;2022-07-05T15:32:18;3.45;;;1.83;;
40286;SDS011;25998;46.604;13.610;2022-07-05T15:35:32;7.93;;;2.30;;
40286;SDS011;25998;46.604;13.610;2022-07-05T15:38:42;3.47;;;1.95;;
40286;SDS011;25998;46.604;13.610;2022-07-05T15:41:53;4.45;;;2.08;;
40286;SDS011;25998;46.604;13.610;2022-07-05T15:45:05;3.80;;;1.75;;
40286;SDS011;25998;46.604;13.610;2022-07-05T15:48:16;3.80;;;1.90;;
40286;SDS011;25998;46.604;13.610;2022-07-05T15:51:27;4.50;;;2.00;;
40286;SDS011;25998;46.604;13.610;2022-07-05T15:54:37;3.42;;;1.80;;
40286;SDS011;25998;46.604;13.610;2022-07-05T15:57:48;5.45;;;2.25;;
40286;SDS011;25998;46.604;13.610;2022-07-05T16:00:59;4.75;;;1.90;;
40286;SDS011;25998;46.604;13.610;2022-07-05T16:04:11;5.80;;;1.85;;
40286;SDS011;25998;46.604;13.610;2022-07-05T16:07:22;6.40;;;2.03;;
40286;SDS011;25998;46.604;13.610;2022-07-05T16:10:33;2.88;;;1.85;;
40286;SDS011;25998;46.604;13.610;2022-07-05T16:13:44;3.15;;;1.60;;
40286;SDS011;25998;46.604;13.610;2022-07-05T16:16:55;4.13;;;1.80;;
40286;SDS011;25998;46.604;13.610;2022-07-05T16:20:06;4.95;;;1.73;;
40286;SDS011;25998;46.604;13.610;2022-07-05T16:23:17;4.57;;;1.88;;
40286;SDS011;25998;46.604;13.610;2022-07-05T16:26:28;3.10;;;2.17;;
40286;SDS011;25998;46.604;13.610;2022-07-05T16:29:39;4.25;;;2.25;;
40286;SDS011;25998;46.604;13.610;2022-07-05T16:32:50;5.13;;;1.73;;
40286;SDS011;25998;46.604;13.610;2022-07-05T16:36:11;2.92;;;1.60;;
40286;SDS011;25998;46.604;13.610;2022-07-05T16:39:23;3.50;;;1.80;;
40286;SDS011;25998;46.604;13.610;2022-07-05T16:42:34;2.47;;;1.70;;
40286;SDS011;25998;46.604;13.610;2022-07-05T16:45:45;2.20;;;1.30;;
40286;SDS011;25998;46.604;13.610;2022-07-05T16:48:56;3.10;;;1.38;;
40286;SDS011;25998;46.604;13.610;2022-07-05T16:52:07;3.00;;;1.40;;
40286;SDS011;25998;46.604;13.610;2022-07-05T16:55:18;2.55;;;1.52;;
40286;SDS011;25998;46.604;13.610;2022-07-05T16:58:29;2.03;;;1.38;;
40286;SDS011;25998;46.604;13.610;2022-07-05T17:01:44;2.10;;;1.40;;
40286;SDS011;25998;46.604;13.610;2022-07-05T17:04:54;2.85;;;1.35;;
40286;SDS011;25998;46.604;13.610;2022-07-05T17:08:05;2.42;;;1.35;;
40286;SDS011;25998;46.604;13.610;2022-07-05T17:11:16;3.15;;;1.58;;
40286;SDS011;25998;46.604;13.610;2022-07-05T17:14:29;2.85;;;1.27;;
40286;SDS011;25998;46.604;13.610;2022-07-05T17:17:40;2.92;;;1.45;;
40286;SDS011;25998;46.604;13.610;2022-07-05T17:20:51;3.08;;;1.33;;
40286;SDS011;25998;46.604;13.610;2022-07-05T17:24:02;4.07;;;1.25;;
40286;SDS011;25998;46.604;13.610;2022-07-05T17:27:14;1.73;;;1.30;;
40286;SDS011;25998;46.604;13.610;2022-07-05T17:30:25;2.50;;;1.40;;
40286;SDS011;25998;46.604;13.610;2022-07-05T17:33:36;3.47;;;1.70;;
40286;SDS011;25998;46.604;13.610;2022-07-05T17:36:47;1.90;;;1.40;;
40286;SDS011;25998;46.604;13.610;2022-07-05T17:39:57;3.40;;;1.42;;
40286;SDS011;25998;46.604;13.610;2022-07-05T17:43:09;2.50;;;1.50;;
40286;SDS011;25998;46.604;13.610;2022-07-05T17:46:20;3.03;;;1.60;;
40286;SDS011;25998;46.604;13.610;2022-07-05T17:49:32;2.47;;;1.80;;
40286;SDS011;25998;46.604;13.610;2022-07-05T17:52:43;2.58;;;1.80;;
40286;SDS011;25998;46.604;13.610;2022-07-05T17:55:54;4.25;;;1.67;;
40286;SDS011;25998;46.604;13.610;2022-07-05T17:59:05;3.47;;;1.90;;
40286;SDS011;25998;46.604;13.610;2022-07-05T18:02:15;3.20;;;1.50;;
40286;SDS011;25998;46.604;13.610;2022-07-05T18:05:27;3.92;;;1.42;;
40286;SDS011;25998;46.604;13.610;2022-07-05T18:08:40;2.65;;;1.70;;
40286;SDS011;25998;46.604;13.610;2022-07-05T18:11:51;3.28;;;1.60;;
40286;SDS011;25998;46.604;13.610;2022-07-05T18:15:02;3.97;;;1.70;;
40286;SDS011;25998;46.604;13.610;2022-07-05T18:18:13;2.28;;;1.50;;
40286;SDS011;25998;46.604;13.610;2022-07-05T18:21:24;3.47;;;1.70;;
40286;SDS011;25998;46.604;13.610;2022-07-05T18:24:35;3.05;;;1.58;;
40286;SDS011;25998;46.604;13.610;2022-07-05T18:27:46;4.40;;;2.03;;
40286;SDS011;25998;46.604;13.610;2022-07-05T18:30:57;3.50;;;2.33;;
40286;SDS011;25998;46.604;13.610;2022-07-05T18:34:08;2.90;;;1.70;;
40286;SDS011;25998;46.604;13.610;2022-07-05T18:37:19;2.30;;;1.90;;
40286;SDS011;25998;46.604;13.610;2022-07-05T18:40:30;2.10;;;1.60;;
40286;SDS011;25998;46.604;13.610;2022-07-05T18:43:41;4.32;;;1.80;;
40286;SDS011;25998;46.604;13.610;2022-07-05T18:46:52;2.92;;;1.90;;
40286;SDS011;25998;46.604;13.610;2022-07-05T18:50:03;4.22;;;2.00;;
40286;SDS011;25998;46.604;13.610;2022-07-05T18:53:15;2.65;;;1.75;;
40286;SDS011;25998;46.604;13.610;2022-07-05T18:56:26;2.53;;;1.70;;
40286;SDS011;25998;46.604;13.610;2022-07-05T18:59:37;3.05;;;1.70;;
40286;SDS011;25998;46.604;13.610;2022-07-05T19:02:48;4.00;;;1.83;;
40286;SDS011;25998;46.604;13.610;2022-07-05T19:05:58;3.95;;;2.40;;
40286;SDS011;25998;46.604;13.610;2022-07-05T19:09:28;5.38;;;2.10;;
40286;SDS011;25998;46.604;13.610;2022-07-05T19:12:57;2.90;;;1.90;;
40286;SDS011;25998;46.604;13.610;2022-07-05T19:16:27;2.88;;;2.10;;
40286;SDS011;25998;46.604;13.610;2022-07-05T19:19:38;2.70;;;2.10;;